createdAt,value
2018-10-04T00:01:09.165Z,95.45
2018-10-04T00:03:39.790Z,95.23
2018-10-04T00:06:10.276Z,95.39
2018-10-04T00:08:40.922Z,96.97
2018-10-04T00:11:11.502Z,96.30
2018-10-04T00:13:41.976Z,97.21
2018-10-04T00:16:12.205Z,96.91
2018-10-04T00:18:42.468Z,96.60
2018-10-04T00:21:12.722Z,97.84
2018-10-04T00:23:43.111Z,97.74
2018-10-04T00:26:13.362Z,99.47
2018-10-04T00:28:43.640Z,98.41
2018-10-04T00:31:13.898Z,97.77
2018-10-04T00:33:44.142Z,98.38
2018-10-04T00:36:14.454Z,97.91
2018-10-04T00:38:44.715Z,98.88
2018-10-04T00:41:15.027Z,98.00
2018-10-04T00:43:45.341Z,97.70
2018-10-04T00:46:15.624Z,98.17
2018-10-04T00:48:45.827Z,98.89
2018-10-04T00:51:16.165Z,98.44
2018-10-04T00:53:46.356Z,98.52
2018-10-04T00:56:16.582Z,98.78
2018-10-04T00:58:46.836Z,99.79
2018-10-04T01:01:17.200Z,98.52
2018-10-04T01:03:47.506Z,98.16
2018-10-04T01:06:17.942Z,97.44
2018-10-04T01:08:48.232Z,97.51
2018-10-04T01:11:18.588Z,97.96
2018-10-04T01:13:48.714Z,98.66
2018-10-04T01:16:18.962Z,97.95
2018-10-04T01:18:55.048Z,98.04
2018-10-04T01:21:25.384Z,98.69
2018-10-04T01:23:55.770Z,98.84
2018-10-04T01:26:26.284Z,98.71
2018-10-04T01:28:56.482Z,99.47
2018-10-04T01:31:26.898Z,99.31
2018-10-04T01:33:57.192Z,99.76
2018-10-04T01:36:27.484Z,100.00
2018-10-04T01:38:57.768Z,100.00
2018-10-04T01:41:28.087Z,100.00
2018-10-04T01:43:58.347Z,99.94
2018-10-04T01:46:28.591Z,100.00
2018-10-04T01:48:58.791Z,100.00
2018-10-04T01:51:29.055Z,99.42
2018-10-04T01:53:59.273Z,99.77
2018-10-04T01:56:29.562Z,99.43
2018-10-04T01:58:59.814Z,100.00
2018-10-04T02:01:30.090Z,100.00
2018-10-04T02:04:00.571Z,100.00
2018-10-04T02:06:30.815Z,99.68
2018-10-04T02:09:01.105Z,99.98
2018-10-04T02:11:31.401Z,100.00
2018-10-04T02:14:01.644Z,100.00
2018-10-04T02:16:31.871Z,100.00
2018-10-04T02:19:02.107Z,100.00
2018-10-04T02:21:32.459Z,100.00
2018-10-04T02:24:02.789Z,100.00
2018-10-04T02:26:33.088Z,100.00
2018-10-04T02:29:03.347Z,100.00
2018-10-04T02:31:33.886Z,100.00
2018-10-04T02:34:04.191Z,100.00
2018-10-04T02:36:34.522Z,100.00
2018-10-04T02:39:05.883Z,100.00
2018-10-04T02:41:36.158Z,100.00
2018-10-04T02:44:06.517Z,100.00
2018-10-04T02:46:36.915Z,100.00
2018-10-04T02:49:07.204Z,100.00
2018-10-04T02:51:37.427Z,100.00
2018-10-04T02:54:07.832Z,100.00
2018-10-04T02:56:43.247Z,100.00
2018-10-04T02:59:13.813Z,100.00
2018-10-04T03:01:44.265Z,100.00
2018-10-04T03:04:14.880Z,100.00
2018-10-04T03:06:45.391Z,100.00
2018-10-04T03:09:16.601Z,100.00
2018-10-04T03:11:47.333Z,100.00
2018-10-04T03:14:17.834Z,100.00
2018-10-04T03:16:48.328Z,100.00
2018-10-04T03:19:18.599Z,100.00
2018-10-04T03:21:48.845Z,100.00
2018-10-04T03:24:19.174Z,100.00
2018-10-04T03:26:49.461Z,100.00
2018-10-04T03:29:19.746Z,100.00
2018-10-04T03:31:50.008Z,100.00
2018-10-04T03:34:20.297Z,100.00
2018-10-04T03:36:50.549Z,100.00
2018-10-04T03:39:20.825Z,100.00
2018-10-04T03:41:51.043Z,100.00
2018-10-04T03:44:21.354Z,100.00
2018-10-04T03:46:51.562Z,100.00
2018-10-04T03:49:21.960Z,100.00
2018-10-04T03:51:52.233Z,100.00
2018-10-04T03:54:22.526Z,100.00
2018-10-04T03:56:52.702Z,100.00
2018-10-04T03:59:22.996Z,100.00
2018-10-04T04:01:53.231Z,100.00
2018-10-04T04:04:23.576Z,100.00
2018-10-04T04:06:53.776Z,100.00
2018-10-04T04:09:24.136Z,100.00
2018-10-04T04:11:54.591Z,100.00
2018-10-04T04:14:24.842Z,100.00
2018-10-04T04:16:55.046Z,100.00
2018-10-04T04:19:25.440Z,100.00
2018-10-04T04:21:56.121Z,100.00
2018-10-04T04:24:26.420Z,100.00
2018-10-04T04:26:56.584Z,100.00
2018-10-04T04:29:26.864Z,100.00
2018-10-04T04:31:57.185Z,100.00
2018-10-04T04:34:27.373Z,100.00
2018-10-04T04:36:57.753Z,100.00
2018-10-04T04:39:28.052Z,100.00
2018-10-04T04:41:58.334Z,100.00
2018-10-04T04:44:28.748Z,100.00
2018-10-04T04:46:59.228Z,100.00
2018-10-04T04:49:29.925Z,100.00
2018-10-04T04:52:00.272Z,100.00
2018-10-04T04:55:39.111Z,100.00
2018-10-04T04:58:11.514Z,100.00
2018-10-04T05:00:42.962Z,100.00
2018-10-04T05:03:13.142Z,100.00
2018-10-04T05:05:43.347Z,100.00
2018-10-04T05:08:13.641Z,100.00
2018-10-04T05:10:43.899Z,100.00
2018-10-04T05:13:14.144Z,100.00
2018-10-04T05:15:44.475Z,100.00
2018-10-04T05:18:14.743Z,100.00
2018-10-04T05:20:45.157Z,100.00
2018-10-04T05:23:15.485Z,100.00
2018-10-04T05:25:46.139Z,100.00
2018-10-04T05:28:16.741Z,100.00
2018-10-04T05:30:47.273Z,100.00
2018-10-04T05:33:17.523Z,100.00
2018-10-04T05:35:47.841Z,100.00
2018-10-04T05:38:18.131Z,100.00
2018-10-04T05:40:48.449Z,100.00
2018-10-04T05:43:18.747Z,100.00
2018-10-04T05:45:49.246Z,100.00
2018-10-04T05:48:19.445Z,100.00
2018-10-04T05:50:49.747Z,100.00
2018-10-04T05:53:20.138Z,100.00
2018-10-04T05:55:50.483Z,100.00
2018-10-04T05:58:21.044Z,100.00
2018-10-04T06:00:51.315Z,100.00
2018-10-04T06:03:21.771Z,100.00
2018-10-04T06:05:52.154Z,100.00
2018-10-04T06:08:22.447Z,100.00
2018-10-04T06:10:52.725Z,99.47
2018-10-04T06:13:22.942Z,98.56
2018-10-04T06:15:53.573Z,98.07
2018-10-04T06:18:23.935Z,97.83
2018-10-04T06:20:54.463Z,96.66
2018-10-04T06:23:25.085Z,95.74
2018-10-04T06:25:55.445Z,95.89
2018-10-04T06:28:25.932Z,94.95
2018-10-04T06:30:56.175Z,95.29
2018-10-04T06:33:26.405Z,94.63
2018-10-04T06:35:56.685Z,94.10
2018-10-04T06:38:26.902Z,92.75
2018-10-04T06:40:57.075Z,91.72
2018-10-04T06:43:27.347Z,90.40
2018-10-04T06:45:57.623Z,89.57
2018-10-04T06:48:27.905Z,88.54
2018-10-04T06:50:58.105Z,87.72
2018-10-04T06:53:28.289Z,86.93
2018-10-04T06:56:14.177Z,85.95
2018-10-04T06:58:44.577Z,84.26
2018-10-04T07:01:14.937Z,83.28
2018-10-04T07:03:45.360Z,81.05
2018-10-04T07:06:15.914Z,79.75
2018-10-04T07:08:46.205Z,80.41
2018-10-04T07:11:16.503Z,80.61
2018-10-04T07:13:46.871Z,79.96
2018-10-04T07:16:17.285Z,78.82
2018-10-04T07:18:47.670Z,79.10
2018-10-04T07:21:18.023Z,78.58
2018-10-04T07:23:48.305Z,79.18
2018-10-04T07:26:18.723Z,77.24
2018-10-04T07:28:49.045Z,76.86
2018-10-04T07:31:19.410Z,76.17
2018-10-04T07:33:49.762Z,77.12
2018-10-04T07:36:20.110Z,75.36
2018-10-04T07:38:50.359Z,73.66
2018-10-04T07:41:20.630Z,72.69
2018-10-04T07:43:50.978Z,72.46
2018-10-04T07:46:21.241Z,72.32
2018-10-04T07:48:51.575Z,71.92
2018-10-04T07:51:21.934Z,71.11
2018-10-04T07:53:52.237Z,70.38
2018-10-04T07:56:22.507Z,70.71
2018-10-04T07:58:52.781Z,69.04
2018-10-04T08:01:23.195Z,67.53
2018-10-04T08:03:53.525Z,67.77
2018-10-04T08:06:24.132Z,67.43
2018-10-04T08:08:54.547Z,63.39
2018-10-04T08:11:24.851Z,62.70
2018-10-04T08:13:55.123Z,62.71
2018-10-04T08:16:25.399Z,61.54
2018-10-04T08:18:56.010Z,61.07
2018-10-04T08:21:26.387Z,58.79
2018-10-04T08:23:57.125Z,56.09
2018-10-04T08:26:27.435Z,57.87
2018-10-04T08:28:57.930Z,56.43
2018-10-04T08:31:28.282Z,56.43
2018-10-04T08:34:00.334Z,52.58
2018-10-04T08:36:30.624Z,52.41
2018-10-04T08:39:00.855Z,50.01
2018-10-04T08:41:31.227Z,49.88
2018-10-04T08:44:01.557Z,49.68
2018-10-04T08:46:31.802Z,49.25
2018-10-04T08:49:02.280Z,50.00
2018-10-04T08:51:37.760Z,50.23
2018-10-04T08:54:08.280Z,50.33
2018-10-04T08:56:38.688Z,50.03
2018-10-04T08:59:09.018Z,48.57
2018-10-04T09:01:39.548Z,48.14
2018-10-04T09:04:09.937Z,45.58
2018-10-04T09:06:40.374Z,45.66
2018-10-04T09:09:10.657Z,44.68
2018-10-04T09:11:41.022Z,44.04
2018-10-04T09:14:11.530Z,44.56
2018-10-04T09:16:41.941Z,42.67
2018-10-04T09:19:12.641Z,42.24
2018-10-04T09:21:43.026Z,40.67
2018-10-04T09:24:13.359Z,40.40
2018-10-04T09:26:43.718Z,40.19
2018-10-04T09:29:14.011Z,41.50
2018-10-04T09:31:49.442Z,41.40
2018-10-04T09:34:28.094Z,40.67
2018-10-04T09:36:58.440Z,42.10
2018-10-04T09:39:28.834Z,41.47
2018-10-04T09:41:59.088Z,38.45
2018-10-04T09:44:29.390Z,38.26
2018-10-04T09:47:09.260Z,38.89
2018-10-04T09:49:39.673Z,38.47
2018-10-04T09:52:10.018Z,37.15
2018-10-04T09:54:45.638Z,36.63
2018-10-04T09:57:21.120Z,34.18
2018-10-04T09:59:51.719Z,31.73
2018-10-04T10:02:25.080Z,33.32
2018-10-04T10:05:07.171Z,32.14
2018-10-04T10:07:37.508Z,30.93
2018-10-04T10:10:08.147Z,30.22
2018-10-04T10:12:38.718Z,29.80
2018-10-04T10:15:09.200Z,30.08
2018-10-04T10:17:39.799Z,29.75
2018-10-04T10:20:10.503Z,28.97
2018-10-04T10:22:40.927Z,29.40
2018-10-04T10:25:11.311Z,29.37
2018-10-04T10:27:41.819Z,30.16
2018-10-04T10:30:12.221Z,30.87
2018-10-04T10:32:42.551Z,30.24
2018-10-04T10:35:12.839Z,29.76
2018-10-04T10:37:43.228Z,28.75
2018-10-04T10:40:13.703Z,29.09
2018-10-04T10:42:43.975Z,28.46
2018-10-04T10:45:14.296Z,29.39
2018-10-04T10:47:44.663Z,29.02
2018-10-04T10:50:14.909Z,31.02
2018-10-04T10:52:45.249Z,30.79
2018-10-04T10:55:21.331Z,29.35
2018-10-04T10:57:51.623Z,27.69
2018-10-04T11:00:21.895Z,27.96
2018-10-04T11:02:52.273Z,28.54
2018-10-04T11:05:22.668Z,28.32
2018-10-04T11:07:53.135Z,27.05
2018-10-04T11:10:23.490Z,27.67
2018-10-04T11:12:53.997Z,28.25
2018-10-04T11:15:24.428Z,26.59
2018-10-04T11:17:55.098Z,26.33
2018-10-04T11:20:25.755Z,28.04
2018-10-04T11:22:56.239Z,29.52
2018-10-04T11:25:30.973Z,30.37
2018-10-04T11:28:01.389Z,29.94
2018-10-04T11:30:31.728Z,29.80
2018-10-04T11:33:02.168Z,28.12
2018-10-04T11:35:32.450Z,27.25
2018-10-04T11:38:02.813Z,27.73
2018-10-04T11:40:33.112Z,25.37
2018-10-04T11:43:03.624Z,25.94
2018-10-04T11:45:36.867Z,25.74
2018-10-04T11:48:08.341Z,24.99
2018-10-04T11:50:38.801Z,25.54
2018-10-04T11:53:09.190Z,25.49
2018-10-04T11:55:39.764Z,25.39
2018-10-04T11:58:10.173Z,24.58
2018-10-04T12:00:40.791Z,23.80
2018-10-04T12:03:11.202Z,23.79
2018-10-04T12:05:49.245Z,23.54
2018-10-04T12:08:19.584Z,23.58
2018-10-04T12:10:50.025Z,23.29
2018-10-04T12:13:20.513Z,23.72
2018-10-04T12:15:51.190Z,23.90
2018-10-04T12:18:21.671Z,23.70
2018-10-04T12:20:51.992Z,23.76
2018-10-04T12:23:22.459Z,23.36
2018-10-04T12:25:52.913Z,22.50
2018-10-04T12:28:29.804Z,23.22
2018-10-04T12:31:00.188Z,23.15
2018-10-04T12:33:30.567Z,24.20
2018-10-04T12:36:01.046Z,24.00
2018-10-04T12:38:31.529Z,22.96
2018-10-04T12:41:01.960Z,22.84
2018-10-04T12:43:32.416Z,22.20
2018-10-04T12:46:02.886Z,21.43
2018-10-04T12:48:33.336Z,21.97
2018-10-04T12:51:03.708Z,22.93
2018-10-04T12:53:34.376Z,23.44
2018-10-04T12:56:05.160Z,22.17
2018-10-04T12:58:35.630Z,20.92
2018-10-04T13:01:06.058Z,20.92
2018-10-04T13:03:36.406Z,21.80
2018-10-04T13:06:06.767Z,23.04
2018-10-04T13:08:37.364Z,23.70
2018-10-04T13:11:07.775Z,24.90
2018-10-04T13:13:38.205Z,24.36
2018-10-04T13:16:09.490Z,24.61
2018-10-04T13:18:39.862Z,24.15
2018-10-04T13:21:10.424Z,23.58
2018-10-04T13:23:40.876Z,23.23
2018-10-04T13:26:11.348Z,22.99
2018-10-04T13:28:41.937Z,23.27
2018-10-04T13:31:12.306Z,24.15
2018-10-04T13:33:42.748Z,23.94
2018-10-04T13:36:13.206Z,24.16
2018-10-04T13:38:43.609Z,23.82
2018-10-04T13:41:13.992Z,24.98
2018-10-04T13:43:44.522Z,26.21
2018-10-04T13:46:15.024Z,25.76
2018-10-04T13:48:45.360Z,25.31
2018-10-04T13:51:15.756Z,25.61
2018-10-04T13:53:46.078Z,25.72
2018-10-04T13:56:16.456Z,26.63
2018-10-04T13:58:49.019Z,26.77
2018-10-04T14:01:19.410Z,28.08
2018-10-04T14:03:49.832Z,26.94
2018-10-04T14:06:20.335Z,27.77
2018-10-04T14:08:50.678Z,27.29
2018-10-04T14:11:21.021Z,27.26
2018-10-04T14:13:51.484Z,26.97
2018-10-04T14:16:22.256Z,26.94
2018-10-04T14:18:52.648Z,27.28
2018-10-04T14:21:23.010Z,27.42
2018-10-04T14:23:53.429Z,28.56
2018-10-04T14:26:23.992Z,26.98
2018-10-04T14:28:54.456Z,27.84
2018-10-04T14:31:24.851Z,28.06
2018-10-04T14:33:55.184Z,27.64
2018-10-04T14:36:25.620Z,27.95
2018-10-04T14:38:56.127Z,26.02
2018-10-04T14:41:27.448Z,24.51
2018-10-04T14:43:57.876Z,24.87
2018-10-04T14:46:28.234Z,24.01
2018-10-04T14:48:58.721Z,24.90
2018-10-04T14:51:29.183Z,24.86
2018-10-04T14:53:59.577Z,24.55
2018-10-04T14:56:30.186Z,24.74
2018-10-04T14:59:00.608Z,25.89
2018-10-04T15:01:31.023Z,26.01
2018-10-04T15:04:01.630Z,26.91
2018-10-04T15:06:32.085Z,27.25
2018-10-04T15:09:02.486Z,27.86
2018-10-04T15:11:32.858Z,27.95
2018-10-04T15:14:03.357Z,27.49
2018-10-04T15:16:34.027Z,27.65
2018-10-04T15:19:04.457Z,28.28
2018-10-04T15:21:34.829Z,29.28
2018-10-04T15:24:05.292Z,29.25
2018-10-04T15:26:35.897Z,30.28
2018-10-04T15:29:06.536Z,30.50
2018-10-04T15:31:37.163Z,31.34
2018-10-04T15:34:07.663Z,31.03
2018-10-04T15:36:37.993Z,31.20
2018-10-04T15:39:09.807Z,31.35
2018-10-04T15:41:40.585Z,31.94
2018-10-04T15:44:11.105Z,32.82
2018-10-04T15:46:41.588Z,32.22
2018-10-04T15:49:12.321Z,32.32
2018-10-04T15:51:42.813Z,31.91
2018-10-04T15:54:13.239Z,32.90
2018-10-04T15:56:43.491Z,32.53
2018-10-04T15:59:13.918Z,33.80
2018-10-04T16:01:44.244Z,33.99
2018-10-04T16:04:14.563Z,34.49
2018-10-04T16:06:45.006Z,34.58
2018-10-04T16:09:15.601Z,34.80
2018-10-04T16:11:45.925Z,35.74
2018-10-04T16:14:16.297Z,36.23
2018-10-04T16:16:46.636Z,36.49
2018-10-04T16:19:17.054Z,37.04
2018-10-04T16:21:47.353Z,37.50
2018-10-04T16:24:17.650Z,38.19
2018-10-04T16:26:47.922Z,38.66
2018-10-04T16:29:18.448Z,40.10
2018-10-04T16:31:48.819Z,40.87
2018-10-04T16:34:19.192Z,41.25
2018-10-04T16:36:49.469Z,42.16
2018-10-04T16:39:20.110Z,42.29
2018-10-04T16:41:50.455Z,43.48
2018-10-04T16:44:21.033Z,44.82
2018-10-04T16:46:51.303Z,45.71
2018-10-04T16:49:21.779Z,46.26
2018-10-04T16:51:52.095Z,49.58
2018-10-04T16:54:22.510Z,49.08
2018-10-04T16:56:52.884Z,49.83
2018-10-04T16:59:23.365Z,49.57
2018-10-04T17:01:53.624Z,51.06
2018-10-04T17:04:23.997Z,50.90
2018-10-04T17:06:54.258Z,52.32
2018-10-04T17:09:24.844Z,52.99
2018-10-04T17:11:55.176Z,53.77
2018-10-04T17:14:25.503Z,54.39
2018-10-04T17:16:55.841Z,54.58
2018-10-04T17:19:26.283Z,54.64
2018-10-04T17:21:56.623Z,55.01
2018-10-04T17:24:28.041Z,55.68
2018-10-04T17:27:00.220Z,58.24
2018-10-04T17:29:30.694Z,60.46
2018-10-04T17:32:01.080Z,61.41
2018-10-04T17:34:31.527Z,64.54
2018-10-04T17:37:02.023Z,64.95
2018-10-04T17:39:32.723Z,65.67
2018-10-04T17:42:03.307Z,65.92
2018-10-04T17:44:33.876Z,66.32
2018-10-04T17:47:04.230Z,66.61
2018-10-04T17:49:34.591Z,65.85
2018-10-04T17:52:05.170Z,64.71
2018-10-04T17:57:40.991Z,66.02
2018-10-04T18:00:16.386Z,65.87
2018-10-04T18:02:46.752Z,65.66
2018-10-04T18:05:17.056Z,69.73
2018-10-04T18:07:47.338Z,68.46
2018-10-04T18:10:17.659Z,69.16
2018-10-04T18:12:54.177Z,69.46
2018-10-04T18:15:24.746Z,69.80
2018-10-04T18:17:57.848Z,69.74
2018-10-04T18:20:28.178Z,68.97
2018-10-04T18:22:58.551Z,69.46
2018-10-04T18:25:28.881Z,70.41
2018-10-04T18:27:59.224Z,69.42
2018-10-04T18:30:29.606Z,71.13
2018-10-04T18:33:00.044Z,73.32
2018-10-04T18:35:30.539Z,72.40
2018-10-04T18:38:00.953Z,71.81
2018-10-04T18:40:31.302Z,73.64
2018-10-04T18:43:01.638Z,74.12
2018-10-04T18:45:31.927Z,76.21
2018-10-04T18:48:06.334Z,76.45
2018-10-04T18:50:36.844Z,78.16
2018-10-04T18:53:07.288Z,77.72
2018-10-04T18:55:37.768Z,78.87
2018-10-04T18:58:08.204Z,78.65
2018-10-04T19:00:38.567Z,79.45
2018-10-04T19:03:09.016Z,78.52
2018-10-04T19:05:39.409Z,79.42
2018-10-04T19:08:09.811Z,79.68
2018-10-04T19:10:40.137Z,78.74
2018-10-04T19:13:10.556Z,79.04
2018-10-04T19:15:40.907Z,78.93
2018-10-04T19:18:11.284Z,80.02
2018-10-04T19:20:41.621Z,82.23
2018-10-04T19:23:11.967Z,81.16
2018-10-04T19:25:42.432Z,80.57
2018-10-04T19:28:12.827Z,81.44
2018-10-04T19:30:43.670Z,80.49
2018-10-04T19:33:19.438Z,81.03
2018-10-04T19:35:49.842Z,82.13
2018-10-04T19:38:20.137Z,82.02
2018-10-04T19:40:50.521Z,82.63
2018-10-04T19:43:20.979Z,82.64
2018-10-04T19:45:51.387Z,83.26
2018-10-04T19:48:21.612Z,82.78
2018-10-04T19:50:51.946Z,83.57
2018-10-04T19:53:22.272Z,84.69
2018-10-04T19:55:52.674Z,84.86
2018-10-04T19:58:23.038Z,84.99
2018-10-04T20:00:53.399Z,84.16
2018-10-04T20:03:23.926Z,83.72
2018-10-04T20:05:54.249Z,84.43
2018-10-04T20:08:24.584Z,84.32
2018-10-04T20:10:54.857Z,85.25
2018-10-04T20:13:25.143Z,85.17
2018-10-04T20:15:55.547Z,85.63
2018-10-04T20:18:25.867Z,86.71
2018-10-04T20:20:56.141Z,85.83
2018-10-04T20:23:26.450Z,85.81
2018-10-04T20:25:56.771Z,86.61
2018-10-04T20:28:27.113Z,86.17
2018-10-04T20:30:57.462Z,85.81
2018-10-04T20:33:27.730Z,85.73
2018-10-04T20:35:58.073Z,86.10
2018-10-04T20:38:28.488Z,87.55
2018-10-04T20:40:59.040Z,86.67
2018-10-04T20:43:29.540Z,87.40
2018-10-04T20:45:59.898Z,88.21
2018-10-04T20:48:30.238Z,87.73
2018-10-04T20:51:00.531Z,89.04
2018-10-04T20:53:31.014Z,88.46
2018-10-04T20:56:01.313Z,88.80
2018-10-04T20:58:31.799Z,88.01
2018-10-04T21:01:02.106Z,88.35
2018-10-04T21:03:32.466Z,88.29
2018-10-04T21:06:08.958Z,88.24
2018-10-04T21:08:45.451Z,88.49
2018-10-04T21:11:15.753Z,88.69
2018-10-04T21:13:46.056Z,88.62
2018-10-04T21:16:16.322Z,89.40
2018-10-04T21:18:46.609Z,89.05
2018-10-04T21:21:16.890Z,89.40
2018-10-04T21:23:47.300Z,89.24
2018-10-04T21:26:17.554Z,87.75
2018-10-04T21:28:47.953Z,88.54
2018-10-04T21:31:18.309Z,89.78
2018-10-04T21:33:48.627Z,89.09
2018-10-04T21:36:18.971Z,89.62
2018-10-04T21:38:49.316Z,90.93
2018-10-04T21:41:19.689Z,91.78
2018-10-04T21:43:50.021Z,90.72
2018-10-04T21:46:20.309Z,92.12
2018-10-04T21:48:50.634Z,91.82
2018-10-04T21:51:20.992Z,93.31
2018-10-04T21:53:51.389Z,93.94
2018-10-04T21:56:21.626Z,92.77
2018-10-04T21:58:55.010Z,92.28
2018-10-04T22:01:25.397Z,91.65
2018-10-04T22:03:55.732Z,91.43
2018-10-04T22:06:26.050Z,92.18
2018-10-04T22:08:56.428Z,92.71
2018-10-04T22:11:26.797Z,93.59
2018-10-04T22:13:57.098Z,93.92
2018-10-04T22:16:27.441Z,94.59
2018-10-04T22:18:57.746Z,95.49
2018-10-04T22:21:28.009Z,94.56
2018-10-04T22:23:58.381Z,93.90
2018-10-04T22:26:30.118Z,94.05
2018-10-04T22:29:00.802Z,93.98
2018-10-04T22:31:31.127Z,93.95
2018-10-04T22:34:01.584Z,94.01
2018-10-04T22:36:31.841Z,94.86
2018-10-04T22:39:02.158Z,94.88
2018-10-04T22:41:32.521Z,95.12
2018-10-04T22:44:02.799Z,94.25
2018-10-04T22:46:33.201Z,93.79
2018-10-04T22:49:03.529Z,93.13
2018-10-04T22:51:33.913Z,93.55
2018-10-04T22:54:04.171Z,94.14
2018-10-04T22:56:34.465Z,93.94
2018-10-04T22:59:04.789Z,94.15
2018-10-04T23:01:35.083Z,94.24
2018-10-04T23:04:05.327Z,94.63
2018-10-04T23:06:35.677Z,94.33
2018-10-04T23:09:06.829Z,94.42
2018-10-04T23:11:37.146Z,94.41
2018-10-04T23:14:07.430Z,94.72
2018-10-04T23:16:37.862Z,96.71
2018-10-04T23:19:08.303Z,97.12
2018-10-04T23:21:38.707Z,96.04
2018-10-04T23:24:09.075Z,96.60
2018-10-04T23:26:39.387Z,97.57
2018-10-04T23:29:09.747Z,96.81
2018-10-04T23:31:40.392Z,96.54
2018-10-04T23:34:10.769Z,97.00
2018-10-04T23:36:41.288Z,97.82
2018-10-04T23:39:12.448Z,96.99
2018-10-04T23:41:42.858Z,97.11
2018-10-04T23:44:13.211Z,97.57
2018-10-04T23:46:43.555Z,97.91
2018-10-04T23:49:14.053Z,98.05
2018-10-04T23:51:44.515Z,97.81
2018-10-04T23:54:14.865Z,97.81
2018-10-04T23:56:45.345Z,97.89
2018-10-04T23:59:15.697Z,97.76
